This is the latest recevied weather packets stored in our database for station/object N3AVN. If no packets are shown the sender has not sent any weather packets the latest 10 day(s).
| Time | Temp. | Humidity | Pressure | Rain* | Wind** | Luminosity | Snow |
|---|---|---|---|---|---|---|---|
| 1777380843 | 13.89° C | 63% | 1020.7 hPa | 0 mm | - | 341 W/m² | - |
| 1777380539 | 15° C | 62% | 1020.7 hPa | 0 mm | - | 331 W/m² | - |
| 1777380235 | 15° C | 61% | 1020.7 hPa | 0 mm | - | 259 W/m² | - |
| 1777379927 | 15.56° C | 61% | 1020.9 hPa | 0 mm | - | 321 W/m² | - |
| 1777379622 | 14.44° C | 64% | 1020.9 hPa | 0 mm | - | 309 W/m² | - |
| 1777379318 | 13.33° C | 67% | 1021.3 hPa | 0 mm | - | 290 W/m² | - |
| 1777379018 | 12.22° C | 71% | 1021.1 hPa | 0 mm | - | 296 W/m² | - |
| 1777378714 | 11.67° C | 73% | 1021.2 hPa | 0 mm | - | 236 W/m² | - |
| 1777378411 | 11.67° C | 74% | 1020.8 hPa | 0 mm | - | 153 W/m² | - |
| 1777378105 | 11.11° C | 75% | 1021.3 hPa | 0 mm | - | 182 W/m² | - |
| 1777377800 | 11.11° C | 77% | 1021.1 hPa | 0 mm | - | 190 W/m² | - |
| 1777377494 | 10° C | 78% | 1020.9 hPa | 0 mm | - | 166 W/m² | - |
| 1777377190 | 10° C | 79% | 1021 hPa | 0 mm | - | 135 W/m² | - |
| 1777376888 | 8.89° C | 83% | 1021.1 hPa | 0 mm | - | 81 W/m² | - |
| 1777376584 | 7.78° C | 85% | 1021.3 hPa | 0 mm | - | 83 W/m² | - |
| 1777376281 | 7.22° C | 88% | 1021.3 hPa | 0 mm | - | 57 W/m² | - |
| 1777375976 | 6.67° C | 90% | 1021.1 hPa | 0 mm | - | 43 W/m² | - |
| 1777375670 | 6.11° C | 91% | 1021 hPa | 0 mm | - | 31 W/m² | - |
| 1777375365 | 5.56° C | 91% | 1021 hPa | 0 mm | - | 31 W/m² | - |
| 1777375063 | 5.56° C | 92% | 1021.1 hPa | 0 mm | - | 24 W/m² | - |
| 1777374758 | 5.56° C | 92% | 1020.9 hPa | 0 mm | - | 24 W/m² | - |
| 1777374454 | 5.56° C | 92% | 1021.1 hPa | 0 mm | - | 23 W/m² | - |
| 1777374152 | 5° C | 92% | 1021.1 hPa | 0 mm | - | 22 W/m² | - |
| 1777373852 | 5° C | 93% | 1021.2 hPa | 0 mm | - | 22 W/m² | - |
| 1777373549 | 4.44° C | 92% | 1021.3 hPa | 0 mm | - | 21 W/m² | - |
* Rain latest hour (hover to see other rain measurements)
** Current wind speed in m/s (hover to see current wind gust speed)